createdAt,value
2023-01-01T00:00:13.944Z,8.95
2023-01-01T00:05:22.390Z,7.47
2023-01-01T00:10:28.493Z,9.70
2023-01-01T00:15:34.763Z,8.22
2023-01-01T00:20:40.894Z,5.81
2023-01-01T00:25:47.125Z,8.07
2023-01-01T00:30:53.404Z,7.42
2023-01-01T00:35:59.686Z,7.59
2023-01-01T00:41:05.830Z,7.15
2023-01-01T00:46:12.243Z,6.26
2023-01-01T00:51:18.237Z,7.84
2023-01-01T00:56:24.511Z,6.49
2023-01-01T01:01:30.809Z,7.81
2023-01-01T01:06:36.914Z,7.09
2023-01-01T01:11:43.208Z,7.55
2023-01-01T01:16:49.440Z,8.94
2023-01-01T01:21:55.560Z,9.31
2023-01-01T01:27:01.793Z,8.45
2023-01-01T01:32:07.915Z,8.91
2023-01-01T01:37:14.369Z,9.17
2023-01-01T01:42:20.284Z,9.68
2023-01-01T01:47:26.601Z,8.70
2023-01-01T01:52:32.650Z,10.60
2023-01-01T01:57:38.781Z,10.57
2023-01-01T02:02:44.969Z,11.43
2023-01-01T02:07:51.125Z,12.60
2023-01-01T02:12:57.167Z,12.51
2023-01-01T02:18:03.296Z,12.64
2023-01-01T02:23:09.459Z,11.21
2023-01-01T02:28:15.778Z,11.75
2023-01-01T02:33:21.921Z,14.28
2023-01-01T02:38:28.182Z,13.09
2023-01-01T02:43:34.244Z,12.81
2023-01-01T02:48:40.502Z,10.17
2023-01-01T02:53:46.652Z,11.65
2023-01-01T02:58:52.844Z,9.17
2023-01-01T03:03:58.910Z,10.78
2023-01-01T03:09:05.703Z,9.03
2023-01-01T03:14:11.766Z,10.71
2023-01-01T03:19:18.083Z,9.65
2023-01-01T03:24:24.166Z,8.86
2023-01-01T03:29:30.384Z,7.98
2023-01-01T03:34:36.493Z,9.68
2023-01-01T03:39:42.721Z,7.17
2023-01-01T03:44:48.792Z,8.91
2023-01-01T03:49:54.944Z,6.82
2023-01-01T03:55:01.146Z,6.67
2023-01-01T04:00:07.339Z,7.13
2023-01-01T04:05:13.487Z,6.32
2023-01-01T04:10:19.827Z,6.01
2023-01-01T04:15:25.900Z,6.04
2023-01-01T04:20:32.218Z,6.36
2023-01-01T04:25:38.284Z,7.33
2023-01-01T04:30:44.433Z,6.05
2023-01-01T04:35:50.480Z,5.65
2023-01-01T04:40:56.669Z,5.78
2023-01-01T04:46:03.118Z,5.90
2023-01-01T04:51:09.313Z,5.48
2023-01-01T04:56:15.383Z,4.64
2023-01-01T05:01:21.800Z,5.57
2023-01-01T05:06:27.748Z,4.88
2023-01-01T05:11:33.914Z,5.63
2023-01-01T05:16:40.002Z,5.17
2023-01-01T05:21:46.109Z,4.00
2023-01-01T05:27:53.555Z,4.29
2023-01-01T05:32:59.794Z,3.90
2023-01-01T05:38:05.857Z,4.24
2023-01-01T05:43:12.036Z,3.49
2023-01-01T05:48:18.105Z,5.47
2023-01-01T05:53:24.337Z,3.79
2023-01-01T05:58:30.389Z,4.90
2023-01-01T06:03:36.574Z,4.87
2023-01-01T06:08:42.631Z,4.96
2023-01-01T06:13:48.839Z,4.18
2023-01-01T06:18:54.990Z,3.15
2023-01-01T06:24:01.261Z,5.40
2023-01-01T06:29:07.279Z,5.62
2023-01-01T06:34:13.549Z,4.16
2023-01-01T06:39:19.701Z,3.32
2023-01-01T06:44:25.915Z,3.56
2023-01-01T06:49:31.989Z,4.27
2023-01-01T06:54:38.141Z,2.18
2023-01-01T06:59:44.226Z,4.12
2023-01-01T07:04:50.440Z,2.97
2023-01-01T07:09:56.525Z,2.16
2023-01-01T07:15:02.688Z,1.16
2023-01-01T07:20:08.786Z,1.55
2023-01-01T07:25:14.942Z,1.97
2023-01-01T07:30:21.028Z,1.20
2023-01-01T07:35:27.261Z,2.32
2023-01-01T07:41:20.412Z,2.40
2023-01-01T07:46:26.606Z,2.14
2023-01-01T07:51:32.695Z,1.70
2023-01-01T07:56:38.919Z,2.72
2023-01-01T08:01:45.023Z,2.14
2023-01-01T08:06:51.121Z,2.28
2023-01-01T08:11:57.231Z,3.22
2023-01-01T08:17:03.433Z,2.24
2023-01-01T08:22:09.486Z,2.48
2023-01-01T08:27:15.665Z,3.19
2023-01-01T08:32:21.737Z,3.21
2023-01-01T08:37:28.082Z,3.38
2023-01-01T08:42:34.138Z,2.65
2023-01-01T08:47:40.422Z,1.82
2023-01-01T08:52:46.600Z,2.67
2023-01-01T08:57:52.781Z,2.32
2023-01-01T09:02:58.982Z,2.63
2023-01-01T09:08:05.054Z,3.27
2023-01-01T09:13:11.114Z,2.11
2023-01-01T09:18:17.305Z,3.51
2023-01-01T09:23:23.453Z,3.65
2023-01-01T09:28:29.667Z,2.66
2023-01-01T09:33:35.731Z,3.13
2023-01-01T09:38:41.961Z,2.95
2023-01-01T09:43:48.044Z,3.86
2023-01-01T09:48:54.303Z,2.77
2023-01-01T09:54:00.380Z,4.47
2023-01-01T09:59:06.553Z,2.54
2023-01-01T10:04:13.708Z,3.27
2023-01-01T10:09:19.838Z,2.57
2023-01-01T10:14:25.917Z,3.45
2023-01-01T10:19:32.212Z,3.40
2023-01-01T10:24:38.267Z,4.03
2023-01-01T10:29:44.468Z,4.33
2023-01-01T10:34:50.631Z,2.70
2023-01-01T10:39:56.782Z,4.05
2023-01-01T10:45:02.846Z,3.64
2023-01-01T10:50:09.904Z,4.61
2023-01-01T10:55:15.986Z,3.16
2023-01-01T11:00:22.192Z,3.08
2023-01-01T11:05:28.253Z,4.52
2023-01-01T11:10:34.435Z,3.64
2023-01-01T11:15:40.621Z,4.58
2023-01-01T11:20:46.997Z,4.98
2023-01-01T11:25:53.040Z,3.11
2023-01-01T11:30:59.568Z,4.10
2023-01-01T11:36:05.643Z,4.33
2023-01-01T11:41:11.875Z,4.58
2023-01-01T11:46:17.983Z,4.17
2023-01-01T11:51:24.147Z,4.73
2023-01-01T11:56:30.261Z,3.70
2023-01-01T12:01:36.839Z,3.67
2023-01-01T12:06:43.136Z,3.54
2023-01-01T12:11:49.480Z,4.94
2023-01-01T12:16:55.985Z,4.83
2023-01-01T12:22:25.000Z,4.61
2023-01-01T12:27:39.253Z,4.45
2023-01-01T12:32:35.445Z,2.69
2023-01-01T12:37:41.494Z,5.36
2023-01-01T12:42:48.191Z,5.43
2023-01-01T12:47:54.385Z,3.58
2023-01-01T12:53:00.625Z,5.37
2023-01-01T12:58:06.683Z,4.68
2023-01-01T13:03:13.054Z,3.00
2023-01-01T13:08:19.077Z,5.34
2023-01-01T13:13:25.404Z,3.88
2023-01-01T13:18:31.596Z,5.02
2023-01-01T13:23:37.901Z,4.83
2023-01-01T13:28:43.940Z,4.77
2023-01-01T13:33:50.158Z,3.99
2023-01-01T13:38:56.240Z,3.98
2023-01-01T13:44:02.580Z,5.61
2023-01-01T13:49:08.617Z,9.27
2023-01-01T13:54:14.875Z,4.12
2023-01-01T13:59:21.054Z,4.18
2023-01-01T14:04:27.229Z,5.13
2023-01-01T14:09:33.291Z,4.91
2023-01-01T14:14:39.605Z,3.33
2023-01-01T14:19:45.795Z,4.71
2023-01-01T14:24:52.160Z,6.06
2023-01-01T14:29:58.444Z,5.13
2023-01-01T14:35:04.590Z,4.73
2023-01-01T14:40:10.767Z,4.27
2023-01-01T14:45:16.973Z,6.85
2023-01-01T14:50:23.055Z,4.27
2023-01-01T14:55:29.219Z,5.99
2023-01-01T15:00:35.396Z,3.88
2023-01-01T15:05:41.782Z,4.92
2023-01-01T15:10:48.130Z,5.79
2023-01-01T15:15:54.292Z,5.71
2023-01-01T15:21:00.498Z,5.46
2023-01-01T15:26:07.813Z,6.63
2023-01-01T15:31:15.468Z,7.04
2023-01-01T15:36:22.013Z,4.12
2023-01-01T15:41:28.137Z,6.07
2023-01-01T15:46:34.373Z,6.30
2023-01-01T15:51:40.493Z,5.01
2023-01-01T15:56:46.641Z,5.08
2023-01-01T16:01:52.808Z,3.82
2023-01-01T16:06:59.214Z,4.56
2023-01-01T16:12:05.307Z,6.37
2023-01-01T16:17:11.459Z,7.13
2023-01-01T16:22:17.536Z,6.97
2023-01-01T16:27:23.788Z,6.83
2023-01-01T16:32:29.929Z,5.99
2023-01-01T16:37:36.139Z,5.50
2023-01-01T16:42:42.266Z,5.77
2023-01-01T16:47:48.512Z,6.51
2023-01-01T16:52:54.689Z,6.73
2023-01-01T16:58:37.979Z,7.80
2023-01-01T17:03:06.542Z,4.57
2023-01-01T17:08:12.802Z,5.70
2023-01-01T17:13:19.085Z,6.81
2023-01-01T17:18:55.076Z,6.13
2023-01-01T17:23:31.209Z,5.52
2023-01-01T17:28:37.379Z,6.10
2023-01-01T17:33:43.544Z,6.91
2023-01-01T17:38:49.839Z,5.54
2023-01-01T17:43:55.954Z,7.66
2023-01-01T17:49:02.196Z,6.49
2023-01-01T17:54:08.333Z,6.96
2023-01-01T17:59:15.001Z,7.58
2023-01-01T18:04:21.128Z,7.34
2023-01-01T18:09:27.414Z,5.88
2023-01-01T18:14:33.480Z,9.02
2023-01-01T18:19:39.794Z,6.14
2023-01-01T18:24:45.839Z,7.03
2023-01-01T18:29:52.044Z,9.78
2023-01-01T18:35:38.854Z,9.13
2023-01-01T18:40:45.517Z,9.15
2023-01-01T18:45:52.159Z,9.06
2023-01-01T18:50:58.999Z,9.31
2023-01-01T18:56:05.457Z,8.63
2023-01-01T19:01:12.469Z,8.13
2023-01-01T19:06:18.571Z,7.76
2023-01-01T19:11:26.185Z,9.61
2023-01-01T19:16:32.816Z,8.45
2023-01-01T19:21:42.339Z,7.19
2023-01-01T19:26:47.200Z,9.01
2023-01-01T19:31:54.219Z,9.28
2023-01-01T19:37:00.809Z,9.10
2023-01-01T19:42:07.660Z,7.99
2023-01-01T19:47:14.400Z,7.09
2023-01-01T19:52:21.154Z,6.89
2023-01-01T19:57:27.358Z,8.31
2023-01-01T20:02:46.192Z,6.86
2023-01-01T20:07:39.563Z,16.12
2023-01-01T20:12:45.832Z,6.68
2023-01-01T20:17:51.939Z,7.75
2023-01-01T20:22:58.248Z,5.81
2023-01-01T20:28:04.319Z,8.14
2023-01-01T20:33:10.558Z,6.88
2023-01-01T20:38:16.718Z,7.48
2023-01-01T20:43:22.951Z,8.61
2023-01-01T20:48:29.071Z,6.89
2023-01-01T20:53:35.391Z,5.97
2023-01-01T20:58:47.617Z,5.58
2023-01-01T21:03:47.227Z,6.50
2023-01-01T21:08:53.349Z,4.87
2023-01-01T21:13:59.599Z,6.60
2023-01-01T21:19:05.652Z,6.64
2023-01-01T21:24:11.825Z,5.32
2023-01-01T21:29:17.928Z,6.27
2023-01-01T21:34:24.330Z,4.03
2023-01-01T21:39:30.471Z,5.94
2023-01-01T21:44:36.672Z,4.19
2023-01-01T21:49:42.815Z,6.03
2023-01-01T21:54:49.019Z,5.76
2023-01-01T21:59:55.166Z,5.79
2023-01-01T22:05:01.419Z,5.63
2023-01-01T22:10:07.465Z,6.21
2023-01-01T22:15:13.845Z,4.29
2023-01-01T22:20:20.015Z,5.78
2023-01-01T22:25:26.350Z,5.33
2023-01-01T22:30:32.459Z,4.51
2023-01-01T22:35:38.685Z,5.14
2023-01-01T22:40:44.861Z,6.01
2023-01-01T22:45:51.226Z,4.33
2023-01-01T22:50:57.282Z,6.73
2023-01-01T22:56:03.455Z,6.39
2023-01-01T23:01:09.589Z,6.60
2023-01-01T23:06:15.808Z,6.36
2023-01-01T23:11:21.872Z,6.24
2023-01-01T23:16:28.043Z,6.27
2023-01-01T23:21:34.183Z,6.40
2023-01-01T23:26:40.400Z,6.44
2023-01-01T23:31:46.687Z,7.01
2023-01-01T23:36:52.808Z,6.27
2023-01-01T23:41:58.900Z,7.04
2023-01-01T23:47:05.214Z,5.33
2023-01-01T23:52:11.376Z,6.50
2023-01-01T23:57:17.580Z,6.28
